createdAt,value
2022-09-12T00:00:30.270Z,0.00
2022-09-12T00:01:30.274Z,0.00
2022-09-12T00:02:30.255Z,0.00
2022-09-12T00:03:30.217Z,0.00
2022-09-12T00:04:30.203Z,0.00
2022-09-12T00:05:30.187Z,0.00
2022-09-12T00:06:30.173Z,0.00
2022-09-12T00:07:30.155Z,0.00
2022-09-12T00:08:30.141Z,0.00
2022-09-12T00:09:30.121Z,0.00
2022-09-12T00:10:30.109Z,0.00
2022-09-12T00:11:30.094Z,0.00
2022-09-12T00:12:30.077Z,0.00
2022-09-12T00:13:30.058Z,0.00
2022-09-12T00:14:30.044Z,0.00
2022-09-12T00:15:30.029Z,0.00
2022-09-12T00:16:30.055Z,0.00
2022-09-12T00:17:29.996Z,0.00
2022-09-12T00:18:29.981Z,0.00
2022-09-12T00:19:29.966Z,0.00
2022-09-12T00:20:29.949Z,0.00
2022-09-12T00:21:29.931Z,0.00
2022-09-12T00:22:29.918Z,0.00
2022-09-12T00:23:29.901Z,0.00
2022-09-12T00:24:29.888Z,0.00
2022-09-12T00:25:29.868Z,0.00
2022-09-12T00:26:29.855Z,0.00
2022-09-12T00:27:29.837Z,0.00
2022-09-12T00:28:29.822Z,0.00
2022-09-12T00:29:29.820Z,0.00
2022-09-12T00:30:29.790Z,0.00
2022-09-12T00:31:29.812Z,0.00
2022-09-12T00:32:29.760Z,0.00
2022-09-12T00:33:29.741Z,0.00
2022-09-12T00:34:29.727Z,0.00
2022-09-12T00:35:29.711Z,0.00
2022-09-12T00:36:29.697Z,0.00
2022-09-12T00:37:29.679Z,0.00
2022-09-12T00:38:29.663Z,0.00
2022-09-12T00:39:29.649Z,0.00
2022-09-12T00:40:29.633Z,0.00
2022-09-12T00:41:29.614Z,0.00
2022-09-12T00:42:29.600Z,0.00
2022-09-12T00:43:29.582Z,0.00
2022-09-12T00:44:29.570Z,0.00
2022-09-12T00:45:29.621Z,0.00
2022-09-12T00:46:29.537Z,0.00
2022-09-12T00:47:29.522Z,0.00
2022-09-12T00:48:29.504Z,0.00
2022-09-12T00:49:29.491Z,0.00
2022-09-12T00:50:29.473Z,0.00
2022-09-12T00:51:29.457Z,0.00
2022-09-12T00:52:29.443Z,0.00
2022-09-12T00:53:29.422Z,0.00
2022-09-12T00:54:29.407Z,0.00
2022-09-12T00:55:29.393Z,0.00
2022-09-12T00:56:29.378Z,0.00
2022-09-12T00:57:29.363Z,0.00
2022-09-12T00:58:29.347Z,0.00
2022-09-12T00:59:29.329Z,0.00
2022-09-12T01:00:29.313Z,0.00
2022-09-12T01:01:32.412Z,0.00
2022-09-12T01:02:29.279Z,0.00
2022-09-12T01:03:29.264Z,0.00
2022-09-12T01:04:29.248Z,0.00
2022-09-12T01:05:29.231Z,0.00
2022-09-12T01:06:29.215Z,0.00
2022-09-12T01:07:29.200Z,0.00
2022-09-12T01:08:29.187Z,0.00
2022-09-12T01:09:29.169Z,0.00
2022-09-12T01:10:29.153Z,0.00
2022-09-12T01:11:29.135Z,0.00
2022-09-12T01:12:29.121Z,0.00
2022-09-12T01:13:29.207Z,0.00
2022-09-12T01:14:29.086Z,0.00
2022-09-12T01:15:29.074Z,0.00
2022-09-12T01:16:29.092Z,0.00
2022-09-12T01:17:29.144Z,0.00
2022-09-12T01:18:29.023Z,0.00
2022-09-12T01:19:29.007Z,0.00
2022-09-12T01:20:28.992Z,0.00
2022-09-12T01:21:28.975Z,0.00
2022-09-12T01:22:28.970Z,0.00
2022-09-12T01:23:28.943Z,0.00
2022-09-12T01:24:28.929Z,0.00
2022-09-12T01:25:28.909Z,0.00
2022-09-12T01:26:28.898Z,0.00
2022-09-12T01:27:28.878Z,0.00
2022-09-12T01:28:28.864Z,0.00
2022-09-12T01:29:28.846Z,0.00
2022-09-12T01:30:28.833Z,0.00
2022-09-12T01:31:28.814Z,0.00
2022-09-12T01:32:28.835Z,0.00
2022-09-12T01:33:28.786Z,0.00
2022-09-12T01:34:28.769Z,0.00
2022-09-12T01:35:28.749Z,0.00
2022-09-12T01:36:28.735Z,0.00
2022-09-12T01:37:28.718Z,0.00
2022-09-12T01:38:28.701Z,0.00
2022-09-12T01:39:28.685Z,0.00
2022-09-12T01:40:28.669Z,0.00
2022-09-12T01:41:28.653Z,0.00
2022-09-12T01:42:28.637Z,0.00
2022-09-12T01:43:28.622Z,0.00
2022-09-12T01:44:28.604Z,0.00
2022-09-12T01:45:28.628Z,0.00
2022-09-12T01:46:28.575Z,0.00
2022-09-12T01:47:28.555Z,0.00
2022-09-12T01:48:28.544Z,0.00
2022-09-12T01:49:28.523Z,0.00
2022-09-12T01:50:28.510Z,0.00
2022-09-12T01:51:28.490Z,0.00
2022-09-12T01:52:28.475Z,0.00
2022-09-12T01:53:28.458Z,0.00
2022-09-12T01:54:28.446Z,0.00
2022-09-12T01:55:28.425Z,0.00
2022-09-12T01:56:28.411Z,0.00
2022-09-12T01:57:28.392Z,0.00
2022-09-12T01:58:28.378Z,0.00
2022-09-12T01:59:28.362Z,0.00
2022-09-12T02:00:28.347Z,0.00
2022-09-12T02:01:28.375Z,0.00
2022-09-12T02:02:28.381Z,0.00
2022-09-12T02:03:28.295Z,0.00
2022-09-12T02:04:31.112Z,0.00
2022-09-12T02:05:28.263Z,0.00
2022-09-12T02:06:28.248Z,0.00
2022-09-12T02:07:28.231Z,0.00
2022-09-12T02:08:28.216Z,0.00
2022-09-12T02:09:28.200Z,0.00
2022-09-12T02:10:32.251Z,0.00
2022-09-12T02:11:28.171Z,0.00
2022-09-12T02:12:28.151Z,0.00
2022-09-12T02:13:28.136Z,0.00
2022-09-12T02:14:28.118Z,0.00
2022-09-12T02:15:28.102Z,0.00
2022-09-12T02:16:28.135Z,0.00
2022-09-12T02:17:28.067Z,0.00
2022-09-12T02:18:28.051Z,0.00
2022-09-12T02:19:28.035Z,0.00
2022-09-12T02:20:47.035Z,0.00
2022-09-12T02:21:28.003Z,0.00
2022-09-12T02:22:27.989Z,0.00
2022-09-12T02:23:27.970Z,0.00
2022-09-12T02:24:27.955Z,0.00
2022-09-12T02:25:27.957Z,0.00
2022-09-12T02:26:27.922Z,0.00
2022-09-12T02:27:27.904Z,0.00
2022-09-12T02:28:27.891Z,0.00
2022-09-12T02:29:27.871Z,0.00
2022-09-12T02:30:27.882Z,0.00
2022-09-12T02:31:27.838Z,0.00
2022-09-12T02:32:27.825Z,0.00
2022-09-12T02:33:27.812Z,0.00
2022-09-12T02:34:27.791Z,0.00
2022-09-12T02:35:27.774Z,0.00
2022-09-12T02:36:27.760Z,0.00
2022-09-12T02:37:27.742Z,0.00
2022-09-12T02:38:27.724Z,0.00
2022-09-12T02:39:27.709Z,0.00
2022-09-12T02:40:27.696Z,0.00
2022-09-12T02:41:27.673Z,0.00
2022-09-12T02:42:27.662Z,0.00
2022-09-12T02:43:27.643Z,0.00
2022-09-12T02:44:27.629Z,0.00
2022-09-12T02:45:27.653Z,0.00
2022-09-12T02:46:27.594Z,0.00
2022-09-12T02:47:27.578Z,0.00
2022-09-12T02:48:27.561Z,0.00
2022-09-12T02:49:27.543Z,0.00
2022-09-12T02:50:27.527Z,0.00
2022-09-12T02:51:27.510Z,0.00
2022-09-12T02:52:27.496Z,0.00
2022-09-12T02:53:27.481Z,0.00
2022-09-12T02:54:27.464Z,0.00
2022-09-12T02:55:27.449Z,0.00
2022-09-12T02:56:27.430Z,0.00
2022-09-12T02:57:27.411Z,0.00
2022-09-12T02:58:27.396Z,0.00
2022-09-12T02:59:27.379Z,0.00
2022-09-12T03:00:27.369Z,0.00
2022-09-12T03:01:27.383Z,0.00
2022-09-12T03:02:27.369Z,0.00
2022-09-12T03:03:27.315Z,0.00
2022-09-12T03:04:27.300Z,0.00
2022-09-12T03:05:27.282Z,0.00
2022-09-12T03:06:27.263Z,0.00
2022-09-12T03:07:27.249Z,0.00
2022-09-12T03:08:27.232Z,0.00
2022-09-12T03:09:27.217Z,0.00
2022-09-12T03:10:27.202Z,0.00
2022-09-12T03:11:27.181Z,0.00
2022-09-12T03:12:27.168Z,0.00
2022-09-12T03:13:27.149Z,0.00
2022-09-12T03:14:27.135Z,0.00
2022-09-12T03:15:27.116Z,0.00
2022-09-12T03:16:27.140Z,0.00
2022-09-12T03:17:27.085Z,0.00
2022-09-12T03:18:27.069Z,0.00
2022-09-12T03:19:27.051Z,0.00
2022-09-12T03:20:27.036Z,0.00
2022-09-12T03:21:27.016Z,0.00
2022-09-12T03:22:27.004Z,0.00
2022-09-12T03:23:26.985Z,0.00
2022-09-12T03:24:26.970Z,0.00
2022-09-12T03:25:26.958Z,0.00
2022-09-12T03:26:26.936Z,0.00
2022-09-12T03:27:26.921Z,0.00
2022-09-12T03:28:26.904Z,0.00
2022-09-12T03:29:26.887Z,0.00
2022-09-12T03:30:26.895Z,0.00
2022-09-12T03:31:26.856Z,0.00
2022-09-12T03:32:26.839Z,0.00
2022-09-12T03:33:26.819Z,0.00
2022-09-12T03:34:26.801Z,0.00
2022-09-12T03:35:26.790Z,0.00
2022-09-12T03:36:26.771Z,0.00
2022-09-12T03:37:26.754Z,0.00
2022-09-12T03:38:26.735Z,0.00
2022-09-12T03:39:26.723Z,0.00
2022-09-12T03:40:26.706Z,0.00
2022-09-12T03:41:26.688Z,0.00
2022-09-12T03:42:26.672Z,0.00
2022-09-12T03:43:26.657Z,0.00
2022-09-12T03:44:26.639Z,0.00
2022-09-12T03:45:26.668Z,0.00
2022-09-12T03:46:26.606Z,0.00
2022-09-12T03:47:26.596Z,0.00
2022-09-12T03:48:26.572Z,0.00
2022-09-12T03:49:26.555Z,0.00
2022-09-12T03:50:26.538Z,0.00
2022-09-12T03:51:26.525Z,0.00
2022-09-12T03:52:26.508Z,0.00
2022-09-12T03:53:26.495Z,0.00
2022-09-12T03:54:26.472Z,0.00
2022-09-12T03:55:26.457Z,0.00
2022-09-12T03:56:26.448Z,0.00
2022-09-12T03:57:26.425Z,0.00
2022-09-12T03:58:26.406Z,0.00
2022-09-12T03:59:26.393Z,0.00
2022-09-12T04:00:26.377Z,0.00
2022-09-12T04:01:26.442Z,0.00
2022-09-12T04:02:26.358Z,0.00
2022-09-12T04:03:26.326Z,0.00
2022-09-12T04:04:26.308Z,0.00
2022-09-12T04:05:26.294Z,0.00
2022-09-12T04:06:26.275Z,0.00
2022-09-12T04:07:26.260Z,0.00
2022-09-12T04:08:26.242Z,0.00
2022-09-12T04:09:26.226Z,0.00
2022-09-12T04:10:26.207Z,0.00
2022-09-12T04:11:26.192Z,0.00
2022-09-12T04:12:26.174Z,0.00
2022-09-12T04:13:26.159Z,0.00
2022-09-12T04:14:26.142Z,0.00
2022-09-12T04:15:26.133Z,0.00
2022-09-12T04:16:26.132Z,0.00
2022-09-12T04:17:26.092Z,0.00
2022-09-12T04:18:26.077Z,0.00
2022-09-12T04:19:26.070Z,0.00
2022-09-12T04:20:26.058Z,0.00
2022-09-12T04:21:26.025Z,0.00
2022-09-12T04:22:26.009Z,0.00
2022-09-12T04:23:25.991Z,0.00
2022-09-12T04:24:25.977Z,0.00
2022-09-12T04:25:25.963Z,0.00
2022-09-12T04:26:25.942Z,0.00
2022-09-12T04:27:25.926Z,0.00
2022-09-12T04:28:25.908Z,0.00
2022-09-12T04:29:25.895Z,0.00
2022-09-12T04:30:25.902Z,0.00
2022-09-12T04:31:25.866Z,0.00
2022-09-12T04:32:25.842Z,0.00
2022-09-12T04:33:25.825Z,4.00
2022-09-12T04:34:25.812Z,0.00
2022-09-12T04:35:25.792Z,0.00
2022-09-12T04:36:25.775Z,4.00
2022-09-12T04:37:25.757Z,0.00
2022-09-12T04:38:25.747Z,4.00
2022-09-12T04:39:25.727Z,8.00
2022-09-12T04:40:25.711Z,4.00
2022-09-12T04:41:25.700Z,8.00
2022-09-12T04:42:25.674Z,8.00
2022-09-12T04:43:25.660Z,8.00
2022-09-12T04:44:25.641Z,8.00
2022-09-12T04:45:25.626Z,12.00
2022-09-12T04:46:25.607Z,12.00
2022-09-12T04:47:25.590Z,12.00
2022-09-12T04:48:25.578Z,16.00
2022-09-12T04:49:25.557Z,20.00
2022-09-12T04:50:25.542Z,24.00
2022-09-12T04:51:25.524Z,28.00
2022-09-12T04:52:25.507Z,32.00
2022-09-12T04:53:25.494Z,32.00
2022-09-12T04:54:25.474Z,36.00
2022-09-12T04:55:25.459Z,36.00
2022-09-12T04:56:25.444Z,44.00
2022-09-12T04:57:25.425Z,48.00
2022-09-12T04:58:25.411Z,52.00
2022-09-12T04:59:25.398Z,56.00
2022-09-12T05:00:25.377Z,60.00
2022-09-12T05:01:25.395Z,68.00
2022-09-12T05:02:25.409Z,72.00
2022-09-12T05:03:25.327Z,76.00
2022-09-12T05:04:25.305Z,84.00
2022-09-12T05:05:25.291Z,88.00
2022-09-12T05:06:25.272Z,92.00
2022-09-12T05:07:25.256Z,100.00
2022-09-12T05:08:25.239Z,108.00
2022-09-12T05:09:25.225Z,112.00
2022-09-12T05:10:25.205Z,120.00
2022-09-12T05:11:33.012Z,128.00
2022-09-12T05:12:25.170Z,136.00
2022-09-12T05:13:25.157Z,140.00
2022-09-12T05:14:25.136Z,148.00
2022-09-12T05:15:25.126Z,156.00
2022-09-12T05:16:25.138Z,164.00
2022-09-12T05:17:25.094Z,172.00
2022-09-12T05:18:25.071Z,180.00
2022-09-12T05:19:25.059Z,188.00
2022-09-12T05:20:25.040Z,196.00
2022-09-12T05:21:25.022Z,204.00
2022-09-12T05:22:25.006Z,212.00
2022-09-12T05:23:24.988Z,220.00
2022-09-12T05:24:24.974Z,228.00
2022-09-12T05:25:24.958Z,236.00
2022-09-12T05:26:24.939Z,240.00
2022-09-12T05:27:24.925Z,252.00
2022-09-12T05:28:24.902Z,260.00
2022-09-12T05:29:24.888Z,268.00
2022-09-12T05:30:25.003Z,276.00
2022-09-12T05:31:24.857Z,288.00
2022-09-12T05:32:24.837Z,296.00
2022-09-12T05:33:25.270Z,304.00
2022-09-12T05:34:32.470Z,312.00
2022-09-12T05:36:28.764Z,332.00
2022-09-12T05:37:28.745Z,340.00
2022-09-12T05:39:32.698Z,360.00
2022-09-12T05:40:32.664Z,368.00
2022-09-12T05:42:36.630Z,388.00
2022-09-12T05:43:36.601Z,400.00
2022-09-12T05:45:29.663Z,428.00
2022-09-12T05:46:29.463Z,436.00
2022-09-12T05:47:29.443Z,448.00
2022-09-12T05:48:29.432Z,456.00
2022-09-12T05:49:29.412Z,460.00
2022-09-12T05:50:29.395Z,460.00
2022-09-12T05:51:29.398Z,464.00
2022-09-12T05:52:29.360Z,464.00
2022-09-12T05:53:29.344Z,472.00
2022-09-12T05:54:31.700Z,480.00
2022-09-12T05:55:29.311Z,492.00
2022-09-12T05:56:29.298Z,508.00
2022-09-12T05:57:29.278Z,516.00
2022-09-12T05:58:29.261Z,540.00
2022-09-12T05:59:29.247Z,572.00
2022-09-12T06:00:33.297Z,608.00
2022-09-12T06:01:29.232Z,652.00
2022-09-12T06:02:29.294Z,692.00
2022-09-12T06:03:29.182Z,732.00
2022-09-12T06:04:29.170Z,776.00
2022-09-12T06:05:29.147Z,804.00
2022-09-12T06:06:29.130Z,824.00
2022-09-12T06:07:29.115Z,844.00
2022-09-12T06:08:29.099Z,860.00
2022-09-12T06:09:29.084Z,872.00
2022-09-12T06:10:29.065Z,880.00
2022-09-12T06:11:29.048Z,896.00
2022-09-12T06:12:29.034Z,928.00
2022-09-12T06:13:29.015Z,940.00
2022-09-12T06:14:29.001Z,944.00
2022-09-12T06:15:28.983Z,972.00
2022-09-12T06:16:29.007Z,1000.00
2022-09-12T06:17:28.949Z,1000.00
2022-09-12T06:18:28.936Z,1028.00
2022-09-12T06:19:28.920Z,1056.00
2022-09-12T06:20:28.907Z,1072.00
2022-09-12T06:21:28.890Z,1080.00
2022-09-12T06:22:28.870Z,1100.00
2022-09-12T06:23:28.855Z,1116.00
2022-09-12T06:24:28.839Z,1140.00
2022-09-12T06:25:28.822Z,1156.00
2022-09-12T06:26:28.811Z,1176.00
2022-09-12T06:27:28.789Z,1192.00
2022-09-12T06:28:28.775Z,1200.00
2022-09-12T06:29:28.757Z,1216.00
2022-09-12T06:30:28.844Z,1236.00
2022-09-12T06:31:28.726Z,1248.00
2022-09-12T06:32:28.711Z,1268.00
2022-09-12T06:33:28.695Z,1288.00
2022-09-12T06:34:28.680Z,1304.00
2022-09-12T06:35:28.661Z,1312.00
2022-09-12T06:36:28.648Z,1320.00
2022-09-12T06:37:28.631Z,1328.00
2022-09-12T06:38:28.616Z,1348.00
2022-09-12T06:39:28.599Z,1360.00
2022-09-12T06:40:28.587Z,1368.00
2022-09-12T06:41:28.570Z,1376.00
2022-09-12T06:42:28.555Z,1388.00
2022-09-12T06:43:28.536Z,1400.00
2022-09-12T06:44:28.523Z,1412.00
2022-09-12T06:45:28.507Z,1420.00
2022-09-12T06:46:28.495Z,1316.00
2022-09-12T06:47:28.479Z,1276.00
2022-09-12T06:48:28.463Z,1324.00
2022-09-12T06:49:28.446Z,1340.00
2022-09-12T06:50:28.431Z,1368.00
2022-09-12T06:51:28.415Z,1432.00
2022-09-12T06:52:28.402Z,1492.00
2022-09-12T06:53:28.383Z,1544.00
2022-09-12T06:54:28.369Z,1564.00
2022-09-12T06:55:28.355Z,1572.00
2022-09-12T06:56:28.339Z,1608.00
2022-09-12T06:57:28.333Z,1628.00
2022-09-12T06:58:28.320Z,1644.00
2022-09-12T06:59:28.292Z,1660.00
2022-09-12T07:00:28.282Z,1716.00
2022-09-12T07:01:28.317Z,1756.00
2022-09-12T07:02:28.289Z,1792.00
2022-09-12T07:03:28.232Z,1848.00
2022-09-12T07:04:28.218Z,1880.00
2022-09-12T07:05:28.201Z,1948.00
2022-09-12T07:06:28.189Z,1968.00
2022-09-12T07:07:28.171Z,2064.00
2022-09-12T07:08:28.161Z,2136.00
2022-09-12T07:09:28.144Z,2200.00
2022-09-12T07:10:28.131Z,2340.00
2022-09-12T07:11:28.112Z,2424.00
2022-09-12T07:12:28.099Z,2484.00
2022-09-12T07:13:28.088Z,2548.00
2022-09-12T07:14:28.070Z,2604.00
2022-09-12T07:15:28.054Z,2656.00
2022-09-12T07:16:28.116Z,2704.00
2022-09-12T07:17:28.069Z,2748.00
2022-09-12T07:18:28.013Z,2788.00
2022-09-12T07:19:27.998Z,2836.00
2022-09-12T07:20:27.982Z,2852.00
2022-09-12T07:21:27.967Z,2876.00
2022-09-12T07:22:27.956Z,2964.00
2022-09-12T07:23:27.937Z,3068.00
2022-09-12T07:24:27.922Z,3152.00
2022-09-12T07:25:27.905Z,3224.00
2022-09-12T07:26:27.897Z,3284.00
2022-09-12T07:27:27.882Z,3316.00
2022-09-12T07:28:27.864Z,3360.00
2022-09-12T07:29:43.133Z,3472.00
2022-09-12T07:30:27.854Z,3588.00
2022-09-12T07:31:27.821Z,3676.00
2022-09-12T07:32:27.805Z,3768.00
2022-09-12T07:33:27.792Z,3804.00
2022-09-12T07:34:27.776Z,3928.00
2022-09-12T07:35:27.768Z,4068.00
2022-09-12T07:36:27.751Z,4172.00
2022-09-12T07:37:27.738Z,4260.00
2022-09-12T07:38:27.722Z,4360.00
2022-09-12T07:39:27.712Z,4520.00
2022-09-12T07:40:27.693Z,4640.00
2022-09-12T07:41:27.680Z,4728.00
2022-09-12T07:42:27.664Z,4832.00
2022-09-12T07:43:27.686Z,4940.00
2022-09-12T07:44:27.637Z,4940.00
2022-09-12T07:45:27.626Z,5232.00
2022-09-12T07:46:27.614Z,5420.00
2022-09-12T07:47:27.599Z,5436.00
2022-09-12T07:48:28.523Z,5576.00
2022-09-12T07:49:27.571Z,5720.00
2022-09-12T07:50:27.557Z,5840.00
2022-09-12T07:51:27.547Z,5992.00
2022-09-12T07:52:27.530Z,6152.00
2022-09-12T07:53:27.519Z,6336.00
2022-09-12T07:54:27.507Z,6512.00
2022-09-12T07:55:27.497Z,6600.00
2022-09-12T07:56:30.513Z,7004.00
2022-09-12T07:57:27.468Z,7224.00
2022-09-12T07:58:27.455Z,7448.00
2022-09-12T07:59:50.831Z,7660.00
2022-09-12T08:00:27.432Z,7884.00
2022-09-12T08:01:27.506Z,8136.00
2022-09-12T08:02:27.450Z,8264.00
2022-09-12T08:03:27.394Z,8488.00
2022-09-12T08:04:27.385Z,8620.00
2022-09-12T08:05:27.371Z,8264.00
2022-09-12T08:06:27.358Z,8168.00
2022-09-12T08:07:27.348Z,8444.00
2022-09-12T08:08:27.336Z,8320.00
2022-09-12T08:09:27.325Z,8884.00
2022-09-12T08:10:27.311Z,8936.00
2022-09-12T08:11:27.300Z,9120.00
2022-09-12T08:12:27.291Z,9364.00
2022-09-12T08:13:27.278Z,9684.00
2022-09-12T08:14:27.268Z,9988.00
2022-09-12T08:15:27.400Z,9728.00
2022-09-12T08:16:27.244Z,10152.00
2022-09-12T08:17:27.233Z,10128.00
2022-09-12T08:18:27.222Z,10344.00
2022-09-12T08:19:27.213Z,10548.00
2022-09-12T08:20:28.455Z,10704.00
2022-09-12T08:21:27.189Z,11048.00
2022-09-12T08:22:27.180Z,10704.00
2022-09-12T08:23:27.169Z,11180.00
2022-09-12T08:24:27.157Z,11488.00
2022-09-12T08:25:27.151Z,11392.00
2022-09-12T08:26:27.157Z,11344.00
2022-09-12T08:27:27.127Z,10884.00
2022-09-12T08:28:27.116Z,11032.00
2022-09-12T08:29:27.108Z,11040.00
2022-09-12T08:30:27.105Z,11340.00
2022-09-12T08:31:27.093Z,10924.00
2022-09-12T08:32:27.079Z,11896.00
2022-09-12T08:33:27.072Z,12124.00
2022-09-12T08:34:27.060Z,12236.00
2022-09-12T08:35:27.048Z,11668.00
2022-09-12T08:36:27.041Z,11392.00
2022-09-12T08:37:27.028Z,11092.00
2022-09-12T08:38:27.021Z,10056.00
2022-09-12T08:39:27.013Z,9808.00
2022-09-12T08:40:27.000Z,9684.00
2022-09-12T08:41:26.993Z,9324.00
2022-09-12T08:42:26.982Z,9188.00
2022-09-12T08:43:26.988Z,9740.00
2022-09-12T08:44:26.969Z,10468.00
2022-09-12T08:45:26.963Z,9940.00
2022-09-12T08:46:27.037Z,9676.00
2022-09-12T08:47:26.949Z,9224.00
2022-09-12T08:48:26.929Z,9396.00
2022-09-12T08:49:26.979Z,8640.00
2022-09-12T08:50:26.915Z,8264.00
2022-09-12T08:51:26.907Z,9088.00
2022-09-12T08:52:26.895Z,9324.00
2022-09-12T08:53:26.888Z,9632.00
2022-09-12T08:54:26.877Z,10072.00
2022-09-12T08:55:26.877Z,10040.00
2022-09-12T08:56:31.469Z,9572.00
2022-09-12T08:57:26.853Z,9100.00
2022-09-12T08:58:26.847Z,8632.00
2022-09-12T08:59:26.839Z,9288.00
2022-09-12T09:00:26.835Z,9016.00
2022-09-12T09:01:26.862Z,8512.00
2022-09-12T09:02:26.860Z,8864.00
2022-09-12T09:03:26.806Z,9396.00
2022-09-12T09:04:28.737Z,9644.00
2022-09-12T09:05:26.787Z,9984.00
2022-09-12T09:06:26.780Z,10140.00
2022-09-12T09:07:26.777Z,10152.00
2022-09-12T09:08:26.768Z,9824.00
2022-09-12T09:09:26.757Z,10400.00
2022-09-12T09:10:26.750Z,9972.00
2022-09-12T09:11:26.741Z,10336.00
2022-09-12T09:12:26.745Z,11172.00
2022-09-12T09:13:26.725Z,10536.00
2022-09-12T09:14:26.716Z,8636.00
2022-09-12T09:15:26.771Z,8836.00
2022-09-12T09:16:26.729Z,8884.00
2022-09-12T09:17:26.696Z,9404.00
2022-09-12T09:18:26.688Z,9264.00
2022-09-12T09:19:26.685Z,9696.00
2022-09-12T09:20:26.675Z,10208.00
2022-09-12T09:21:26.675Z,10400.00
2022-09-12T09:22:26.659Z,10272.00
2022-09-12T09:23:26.654Z,11180.00
2022-09-12T09:24:26.646Z,10964.00
2022-09-12T09:25:26.647Z,10952.00
2022-09-12T09:26:26.681Z,11228.00
2022-09-12T09:27:41.832Z,10476.00
2022-09-12T09:28:26.622Z,11148.00
2022-09-12T09:29:26.613Z,10372.00
2022-09-12T09:30:26.608Z,10508.00
2022-09-12T09:31:26.633Z,10480.00
2022-09-12T09:32:26.596Z,10624.00
2022-09-12T09:33:26.592Z,10488.00
2022-09-12T09:34:26.584Z,10368.00
2022-09-12T09:35:26.577Z,10684.00
2022-09-12T09:36:26.574Z,10184.00
2022-09-12T09:37:26.564Z,10600.00
2022-09-12T09:38:26.557Z,10348.00
2022-09-12T09:39:26.557Z,10160.00
2022-09-12T09:40:26.551Z,10072.00
2022-09-12T09:41:26.545Z,9744.00
2022-09-12T09:42:26.545Z,7756.00
2022-09-12T09:43:26.533Z,8908.00
2022-09-12T09:44:26.528Z,8524.00
2022-09-12T09:45:26.521Z,9944.00
2022-09-12T09:46:26.586Z,10096.00
2022-09-12T09:47:26.512Z,10432.00
2022-09-12T09:48:26.513Z,9868.00
2022-09-12T09:49:26.499Z,10016.00
2022-09-12T09:50:26.496Z,9676.00
2022-09-12T09:51:26.494Z,10188.00
2022-09-12T09:52:26.489Z,10524.00
2022-09-12T09:53:26.481Z,10824.00
2022-09-12T09:54:26.475Z,10488.00
2022-09-12T09:55:26.471Z,10076.00
2022-09-12T09:56:26.467Z,9944.00
2022-09-12T09:57:26.463Z,9240.00
2022-09-12T09:58:26.459Z,10056.00
2022-09-12T09:59:26.457Z,10344.00
2022-09-12T10:00:26.450Z,10424.00
2022-09-12T10:01:26.454Z,9248.00
2022-09-12T10:02:26.492Z,8624.00
2022-09-12T10:03:26.439Z,9096.00
2022-09-12T10:04:26.433Z,8952.00
2022-09-12T10:05:26.429Z,9064.00
2022-09-12T10:06:26.430Z,9220.00
2022-09-12T10:07:26.419Z,8728.00
2022-09-12T10:08:26.417Z,9192.00
2022-09-12T10:09:26.411Z,8216.00
2022-09-12T10:10:26.406Z,10084.00
2022-09-12T10:11:26.402Z,9904.00
2022-09-12T10:12:26.395Z,10096.00
2022-09-12T10:13:26.395Z,10080.00
2022-09-12T10:14:26.391Z,10048.00
2022-09-12T10:15:26.383Z,9868.00
2022-09-12T10:16:26.378Z,9796.00
2022-09-12T10:17:27.923Z,9864.00
2022-09-12T10:18:26.369Z,9544.00
2022-09-12T10:19:26.367Z,9680.00
2022-09-12T10:20:26.410Z,9692.00
2022-09-12T10:21:26.361Z,9104.00
2022-09-12T10:22:26.354Z,9372.00
2022-09-12T10:23:26.367Z,10044.00
2022-09-12T10:24:26.346Z,10896.00
2022-09-12T10:25:26.491Z,10028.00
2022-09-12T10:26:26.337Z,10092.00
2022-09-12T10:27:26.334Z,9844.00
2022-09-12T10:28:26.336Z,10012.00
2022-09-12T10:29:26.323Z,9440.00
2022-09-12T10:30:26.409Z,8996.00
2022-09-12T10:31:26.315Z,9188.00
2022-09-12T10:32:30.513Z,8828.00
2022-09-12T10:33:26.314Z,8792.00
2022-09-12T10:34:26.307Z,8052.00
2022-09-12T10:35:26.302Z,8268.00
2022-09-12T10:36:26.338Z,8236.00
2022-09-12T10:37:26.307Z,8468.00
2022-09-12T10:38:26.288Z,8220.00
2022-09-12T10:39:26.320Z,7260.00
2022-09-12T10:40:26.395Z,7112.00
2022-09-12T10:41:26.276Z,6692.00
2022-09-12T10:42:26.304Z,7092.00
2022-09-12T10:43:26.428Z,8528.00
2022-09-12T10:44:26.270Z,9544.00
2022-09-12T10:45:26.256Z,8764.00
2022-09-12T10:46:26.303Z,8952.00
2022-09-12T10:47:26.251Z,8708.00
2022-09-12T10:48:26.243Z,10148.00
2022-09-12T10:49:26.241Z,10264.00
2022-09-12T10:50:26.231Z,10068.00
2022-09-12T10:51:26.243Z,11020.00
2022-09-12T10:52:26.226Z,11180.00
2022-09-12T10:53:28.903Z,11788.00
2022-09-12T10:54:26.215Z,12268.00
2022-09-12T10:55:26.210Z,12220.00
2022-09-12T10:56:26.212Z,10836.00
2022-09-12T10:57:26.202Z,11260.00
2022-09-12T10:58:26.195Z,10456.00
2022-09-12T10:59:26.191Z,5140.00
2022-09-12T11:00:26.189Z,10884.00
2022-09-12T11:01:26.241Z,5620.00
2022-09-12T11:02:26.235Z,9332.00
2022-09-12T11:03:26.176Z,11652.00
2022-09-12T11:04:26.176Z,11504.00
2022-09-12T11:05:26.233Z,10528.00
2022-09-12T11:06:26.160Z,9556.00
2022-09-12T11:07:26.242Z,9144.00
2022-09-12T11:08:26.153Z,10672.00
2022-09-12T11:09:26.193Z,12016.00
2022-09-12T11:10:26.437Z,10024.00
2022-09-12T11:11:26.141Z,11812.00
2022-09-12T11:12:26.137Z,11796.00
2022-09-12T11:13:26.136Z,12996.00
2022-09-12T11:14:26.185Z,12872.00
2022-09-12T11:15:26.120Z,12280.00
2022-09-12T11:16:26.115Z,12680.00
2022-09-12T11:17:26.115Z,11856.00
2022-09-12T11:18:26.119Z,11544.00
2022-09-12T11:19:26.105Z,11460.00
2022-09-12T11:20:26.097Z,11176.00
2022-09-12T11:21:26.097Z,12520.00
2022-09-12T11:22:31.085Z,13316.00
2022-09-12T11:23:26.117Z,4760.00
2022-09-12T11:24:26.228Z,10212.00
2022-09-12T11:25:26.079Z,12920.00
2022-09-12T11:26:26.073Z,8456.00
2022-09-12T11:27:26.068Z,6016.00
2022-09-12T11:28:26.103Z,3608.00
2022-09-12T11:29:26.711Z,3668.00
2022-09-12T11:30:26.056Z,3928.00
2022-09-12T11:31:26.051Z,4120.00
2022-09-12T11:32:26.047Z,4008.00
2022-09-12T11:33:26.046Z,3980.00
2022-09-12T11:34:26.039Z,8512.00
2022-09-12T11:35:26.036Z,5328.00
2022-09-12T11:36:26.028Z,5380.00
2022-09-12T11:37:26.023Z,6720.00
2022-09-12T11:38:26.018Z,10704.00
2022-09-12T11:39:26.012Z,7276.00
2022-09-12T11:40:26.722Z,5876.00
2022-09-12T11:41:26.003Z,6492.00
2022-09-12T11:42:33.727Z,13980.00
2022-09-12T11:44:30.467Z,11556.00
2022-09-12T11:45:30.442Z,7244.00
2022-09-12T11:47:35.915Z,3156.00
2022-09-12T11:48:35.954Z,3016.00
2022-09-12T11:50:41.385Z,2776.00
2022-09-12T11:51:41.373Z,2736.00
2022-09-12T11:52:41.354Z,3104.00
2022-09-12T11:53:41.350Z,4864.00
2022-09-12T11:54:41.343Z,10920.00
2022-09-12T11:55:41.342Z,3696.00
2022-09-12T11:56:41.343Z,3624.00
2022-09-12T11:57:41.330Z,3620.00
2022-09-12T11:58:41.402Z,3616.00
2022-09-12T11:59:41.320Z,3616.00
2022-09-12T12:00:41.312Z,3532.00
2022-09-12T12:01:45.014Z,3800.00
2022-09-12T12:02:41.320Z,5340.00
2022-09-12T12:03:41.328Z,6128.00
2022-09-12T12:04:41.285Z,4112.00
2022-09-12T12:05:41.281Z,4208.00
2022-09-12T12:06:41.283Z,4544.00
2022-09-12T12:07:45.458Z,4548.00
2022-09-12T12:08:41.413Z,6548.00
2022-09-12T12:09:41.256Z,19520.00
2022-09-12T12:10:41.250Z,5392.00
2022-09-12T12:11:41.250Z,5064.00
2022-09-12T12:12:41.364Z,4396.00
2022-09-12T12:13:41.230Z,4272.00
2022-09-12T12:14:41.226Z,5360.00
2022-09-12T12:15:41.273Z,18464.00
2022-09-12T12:16:41.212Z,17984.00
2022-09-12T12:17:41.208Z,19136.00
2022-09-12T12:18:41.205Z,4100.00
2022-09-12T12:19:41.195Z,5364.00
2022-09-12T12:20:41.188Z,18368.00
2022-09-12T12:21:41.188Z,19136.00
2022-09-12T12:22:41.177Z,19808.00
2022-09-12T12:23:41.174Z,19936.00
2022-09-12T12:24:41.165Z,19840.00
2022-09-12T12:25:41.817Z,19872.00
2022-09-12T12:26:41.157Z,19552.00
2022-09-12T12:27:41.200Z,19648.00
2022-09-12T12:28:41.145Z,18944.00
2022-09-12T12:29:43.822Z,17408.00
2022-09-12T12:30:41.135Z,16320.00
2022-09-12T12:31:41.132Z,15192.00
2022-09-12T12:32:41.154Z,17920.00
2022-09-12T12:33:41.126Z,19616.00
2022-09-12T12:34:41.121Z,3940.00
2022-09-12T12:35:41.117Z,3956.00
2022-09-12T12:36:41.122Z,19136.00
2022-09-12T12:37:41.108Z,19936.00
2022-09-12T12:38:41.106Z,19744.00